De Westereen, Netherlands
Current Conditions -  °F | °C
As of 1:55 PM on Friday 24 Oct 2014 (Local Time) from EHLW Reporting Station
Drizzle Drizzle  
Wind Chill: 52°   Ceiling: 800
Heat Index: 52°   Visibility: 3mi
Dew Point: 52°   Wind: 14mph
Humidity: 100%   Direction: 190°S
Pressure: 30"   Gusts: NA
Location:  53.26°N, 6.04°E
Report Text: EHLW 241155Z AUTO 19012KT 4800 DZ SCT006 BKN008 OVC009 11/11 Q1016 YLO 18012KT 7000 FEW009 BKN011 OVC016
Loading
Personal Weather Stations






























Interactive Weather Map
Tropical Storm Tracking
New forecast layout! Learn more

10-Day Weather Forecast

Advertisements
Track Severe Weather on mobile